Time;durP1;ratioP1;P1;durP2;ratioP2;P2;SDS_P1;SDS_P2;PMS_P1;PMS_P2;Temp;Humidity;BMP_temperature;BMP_pressure;BME280_temperature;BME280_humidity;BME280_pressure;Samples;Min_cycle;Max_cycle;Signal;HPM_P1;HPM_P2
2021/08/17 00:00:22;;;;;;;18.58;8.32;;;;;;;3.92;75.48;95629.19;5005483;28;20085;-70
2021/08/17 00:02:47;;;;;;;19.10;9.32;;;;;;;3.73;77.08;95636.06;5005961;28;20085;-70
2021/08/17 00:05:13;;;;;;;11.52;7.55;;;;;;;3.79;77.09;95638.19;5006157;28;20773;-70
2021/08/17 00:07:38;;;;;;;16.20;8.95;;;;;;;3.80;77.12;95638.97;5006383;28;20908;-69
2021/08/17 00:10:04;;;;;;;13.02;7.47;;;;;;;3.93;76.07;95625.56;5003661;28;20106;-69
2021/08/17 00:12:30;;;;;;;15.25;9.48;;;;;;;4.05;75.40;95613.94;5003898;28;20089;-69
2021/08/17 00:14:55;;;;;;;11.18;8.00;;;;;;;3.61;77.37;95627.44;5006198;28;20814;-71
2021/08/17 00:17:20;;;;;;;14.27;7.90;;;;;;;3.83;76.80;95627.34;4995712;28;20114;-69
2021/08/17 00:19:46;;;;;;;16.35;8.07;;;;;;;3.81;77.54;95623.06;5007206;28;20574;-70
2021/08/17 00:22:12;;;;;;;11.23;6.68;;;;;;;3.92;77.05;95627.38;5003768;28;20549;-70
2021/08/17 00:24:38;;;;;;;17.52;7.97;;;;;;;3.94;76.95;95624.59;5005906;28;20106;-70
2021/08/17 00:27:03;;;;;;;17.33;9.18;;;;;;;3.81;77.56;95638.00;5006085;28;20090;-70
2021/08/17 00:29:29;;;;;;;10.63;6.45;;;;;;;4.12;76.70;95637.94;5004189;28;20494;-71
2021/08/17 00:31:54;;;;;;;14.80;8.15;;;;;;;4.39;74.68;95625.88;5005402;28;20451;-70
2021/08/17 00:34:20;;;;;;;12.32;7.65;;;;;;;4.37;75.13;95633.13;5005541;28;20122;-71
2021/08/17 00:36:46;;;;;;;15.13;7.65;;;;;;;5.04;72.70;95618.31;4998228;28;20098;-71
2021/08/17 00:39:12;;;;;;;13.20;8.00;;;;;;;5.03;72.07;95621.94;5005746;28;20532;-71
2021/08/17 00:41:38;;;;;;;12.65;6.53;;;;;;;4.85;72.94;95622.66;4986232;28;20054;-71
2021/08/17 00:44:05;;;;;;;15.32;7.07;;;;;;;4.66;73.12;95631.44;5003941;28;20099;-71
2021/08/17 00:46:31;;;;;;;16.88;9.32;;;;;;;4.58;73.43;95632.13;5000885;28;20049;-71
2021/08/17 00:48:56;;;;;;;16.08;7.18;;;;;;;4.65;73.37;95627.97;4998014;28;20038;-68
2021/08/17 00:51:21;;;;;;;13.52;7.07;;;;;;;4.49;74.54;95635.63;5005483;28;20090;-68
2021/08/17 00:53:47;;;;;;;12.30;7.22;;;;;;;4.93;73.66;95625.41;4999535;28;20099;-68
2021/08/17 00:56:14;;;;;;;15.15;7.25;;;;;;;4.77;72.69;95627.81;5005470;28;20586;-69
2021/08/17 00:58:39;;;;;;;18.30;7.40;;;;;;;4.80;73.43;95622.25;5003652;28;20086;-69
2021/08/17 01:01:05;;;;;;;13.98;6.15;;;;;;;5.14;72.29;95620.97;5003306;28;20113;-69
2021/08/17 01:03:31;;;;;;;12.13;7.10;;;;;;;5.00;72.18;95622.22;5004586;28;20082;-70
2021/08/17 01:05:58;;;;;;;12.90;6.63;;;;;;;5.29;71.20;95618.69;5003413;28;20122;-70
2021/08/17 01:08:24;;;;;;;11.55;6.57;;;;;;;5.07;72.07;95616.25;5005413;28;20784;-70
2021/08/17 01:10:49;;;;;;;13.45;7.43;;;;;;;4.63;73.55;95626.44;5006538;28;20114;-70
2021/08/17 01:13:15;;;;;;;12.95;7.55;;;;;;;4.40;73.41;95627.56;5008304;28;20098;-69
2021/08/17 01:15:40;;;;;;;14.65;7.45;;;;;;;4.18;76.07;95620.75;5009021;28;20086;-71
2021/08/17 01:18:07;;;;;;;9.80;5.65;;;;;;;4.85;74.15;95620.03;5008189;28;20498;-70
2021/08/17 01:20:32;;;;;;;15.27;5.90;;;;;;;4.79;73.08;95623.22;5007864;28;20110;-70
2021/08/17 01:22:58;;;;;;;12.48;6.97;;;;;;;4.63;74.40;95632.53;5006621;28;20118;-70
2021/08/17 01:25:24;;;;;;;10.23;5.82;;;;;;;4.74;74.63;95633.38;5008282;28;20102;-70
2021/08/17 01:27:49;;;;;;;10.38;6.18;;;;;;;4.98;72.62;95622.34;5007821;28;20182;-69
2021/08/17 01:30:15;;;;;;;12.73;6.05;;;;;;;5.53;70.89;95635.81;5004557;28;20110;-70
2021/08/17 01:32:43;;;;;;;10.55;5.55;;;;;;;4.78;72.88;95626.81;5007701;28;20106;-70
2021/08/17 01:35:10;;;;;;;12.32;6.05;;;;;;;5.18;71.49;95635.53;5008498;28;20082;-70
2021/08/17 01:37:35;;;;;;;11.93;6.22;;;;;;;4.96;72.84;95638.31;5007879;28;20510;-70
2021/08/17 01:40:02;;;;;;;15.10;6.30;;;;;;;5.03;73.20;95646.50;5008510;28;20086;-70
2021/08/17 01:42:29;;;;;;;13.35;5.78;;;;;;;4.72;73.25;95646.69;5008142;28;20122;-70
2021/08/17 01:44:56;;;;;;;12.07;5.18;;;;;;;4.83;72.54;95648.38;5008162;28;20156;-69
2021/08/17 01:47:22;;;;;;;12.23;6.20;;;;;;;4.91;72.45;95648.50;5006711;28;20147;-68
2021/08/17 01:49:47;;;;;;;17.67;7.25;;;;;;;5.12;72.17;95646.66;5007675;28;20106;-68
2021/08/17 01:52:12;;;;;;;13.35;6.32;;;;;;;5.20;71.72;95652.88;5004075;28;20079;-69
2021/08/17 01:54:38;;;;;;;14.60;6.30;;;;;;;5.00;73.33;95649.41;5004916;28;20110;-69
2021/08/17 01:57:03;;;;;;;15.75;8.52;;;;;;;5.08;71.91;95661.94;5007558;28;20136;-68
2021/08/17 01:59:32;;;;;;;17.80;8.80;;;;;;;4.26;75.05;95656.97;5003249;28;20079;-68
2021/08/17 02:01:57;;;;;;;16.85;9.35;;;;;;;4.24;75.28;95658.88;5007848;28;20602;-69
2021/08/17 02:04:23;;;;;;;14.55;6.95;;;;;;;4.48;74.22;95650.59;5007581;28;20078;-68
2021/08/17 02:06:48;;;;;;;16.95;7.40;;;;;;;4.64;73.61;95655.31;5007326;28;20078;-68
2021/08/17 02:09:14;;;;;;;13.93;6.20;;;;;;;4.83;73.45;95649.19;5007430;28;20192;-68
2021/08/17 02:11:39;;;;;;;13.30;6.25;;;;;;;5.19;72.04;95653.03;5007832;28;20123;-68
2021/08/17 02:14:05;;;;;;;15.63;6.90;;;;;;;5.53;70.88;95656.94;5006886;28;20137;-70
2021/08/17 02:16:31;;;;;;;15.65;7.90;;;;;;;5.11;72.14;95656.41;5007587;28;20087;-70
2021/08/17 02:18:56;;;;;;;18.20;8.15;;;;;;;4.66;72.86;95650.72;5008094;28;20086;-69
2021/08/17 02:21:21;;;;;;;24.48;9.18;;;;;;;4.44;74.24;95646.56;5007404;28;20593;-69
2021/08/17 02:23:47;;;;;;;19.08;8.13;;;;;;;4.53;73.54;95652.81;5007895;28;20078;-69
2021/08/17 02:26:12;;;;;;;20.67;10.80;;;;;;;4.28;74.68;95653.22;5007702;28;20169;-69
2021/08/17 02:28:38;;;;;;;17.13;7.68;;;;;;;4.53;73.77;95650.19;5007166;28;20106;-69
2021/08/17 02:31:03;;;;;;;18.60;9.38;;;;;;;4.50;74.79;95653.09;5008139;28;20095;-69
2021/08/17 02:33:29;;;;;;;15.60;6.80;;;;;;;4.91;72.87;95659.03;5008147;28;20102;-69
2021/08/17 02:35:54;;;;;;;17.38;8.18;;;;;;;5.18;72.32;95652.22;5010345;28;20124;-69
2021/08/17 02:38:19;;;;;;;15.30;7.00;;;;;;;4.93;73.10;95653.63;5010829;28;20114;-69
2021/08/17 02:40:45;;;;;;;14.45;7.20;;;;;;;5.12;72.00;95658.06;5010453;28;20106;-69
2021/08/17 02:43:10;;;;;;;18.65;10.07;;;;;;;5.13;71.98;95662.34;5011672;28;20070;-71
2021/08/17 02:45:36;;;;;;;23.85;12.23;;;;;;;4.71;73.94;95661.69;5010638;28;20216;-69
2021/08/17 02:48:01;;;;;;;18.35;10.63;;;;;;;4.31;74.30;95654.75;5011371;28;20086;-69
2021/08/17 02:50:27;;;;;;;18.27;9.15;;;;;;;4.43;75.37;95663.38;5010580;28;20518;-68
2021/08/17 02:52:53;;;;;;;21.92;10.90;;;;;;;4.26;75.20;95662.22;5003670;28;20108;-68
2021/08/17 02:55:18;;;;;;;15.65;7.15;;;;;;;4.70;73.34;95667.94;5007181;28;20084;-68
2021/08/17 02:58:07;;;;;;;20.85;8.75;;;;;;;4.52;73.71;95665.16;5006999;28;20110;-68
2021/08/17 03:00:32;;;;;;;17.65;9.35;;;;;;;5.01;73.03;95666.09;5009340;28;20148;-68
2021/08/17 03:02:58;;;;;;;15.88;9.60;;;;;;;4.79;72.63;95670.69;5010773;28;20082;-68
2021/08/17 03:05:23;;;;;;;21.20;10.50;;;;;;;4.97;72.81;95663.72;5009858;28;20106;-68
2021/08/17 03:07:50;;;;;;;19.70;8.38;;;;;;;5.32;71.28;95665.91;5010703;28;20152;-68
2021/08/17 03:10:16;;;;;;;22.73;8.32;;;;;;;5.53;70.04;95672.78;5010005;28;20122;-68
2021/08/17 03:12:41;;;;;;;19.08;9.15;;;;;;;5.33;71.31;95664.94;5008914;28;20570;-69
2021/08/17 03:15:07;;;;;;;16.98;8.23;;;;;;;5.63;69.84;95659.53;5010744;28;20137;-69
2021/08/17 03:17:33;;;;;;;17.33;8.20;;;;;;;5.51;70.64;95672.13;5010243;28;20102;-69
2021/08/17 03:19:59;;;;;;;21.38;9.88;;;;;;;5.66;70.78;95660.09;5010699;28;20107;-69
2021/08/17 03:22:24;;;;;;;18.20;9.20;;;;;;;5.61;70.62;95670.25;5010308;28;20144;-70
2021/08/17 03:24:50;;;;;;;22.70;10.85;;;;;;;4.78;72.48;95679.59;5009892;28;20102;-70
2021/08/17 03:27:15;;;;;;;24.05;11.90;;;;;;;4.61;73.41;95678.47;5010620;28;20446;-70
2021/08/17 03:29:40;;;;;;;19.05;8.43;;;;;;;4.51;74.08;95681.13;5009801;28;20550;-70
2021/08/17 03:32:06;;;;;;;18.60;9.52;;;;;;;5.08;71.27;95672.50;5010307;28;20101;-70
2021/08/17 03:34:32;;;;;;;22.30;11.73;;;;;;;5.29;71.49;95674.97;5010066;28;20177;-70
2021/08/17 03:36:57;;;;;;;16.48;7.93;;;;;;;5.26;71.42;95669.13;5008130;28;20102;-70
2021/08/17 03:39:22;;;;;;;22.63;11.95;;;;;;;5.79;69.41;95669.50;5010262;28;20085;-70
2021/08/17 03:41:48;;;;;;;17.90;9.75;;;;;;;5.58;70.67;95675.84;5007570;28;20102;-71
2021/08/17 03:44:13;;;;;;;14.93;6.93;;;;;;;5.59;70.78;95674.88;5009582;28;20078;-71
2021/08/17 03:46:38;;;;;;;18.67;8.93;;;;;;;5.61;70.06;95681.66;5008024;28;20463;-70
2021/08/17 03:49:04;;;;;;;22.98;11.68;;;;;;;5.86;70.02;95678.50;5009737;28;20098;-70
2021/08/17 03:51:29;;;;;;;22.35;11.70;;;;;;;5.71;70.13;95665.78;5009917;28;20075;-70
2021/08/17 03:53:55;;;;;;;20.02;9.98;;;;;;;5.92;69.32;95669.97;5002989;28;20106;-70
2021/08/17 03:56:20;;;;;;;22.92;10.48;;;;;;;6.28;67.66;95678.94;5003936;28;20078;-70
2021/08/17 03:58:45;;;;;;;20.33;10.35;;;;;;;5.47;70.73;95675.03;5009695;28;20542;-71
2021/08/17 04:01:12;;;;;;;20.40;9.43;;;;;;;5.27;71.74;95668.97;5009469;28;20106;-70
2021/08/17 04:03:37;;;;;;;18.63;9.82;;;;;;;5.43;71.54;95671.03;5003636;28;20546;-71
2021/08/17 04:06:03;;;;;;;22.48;10.15;;;;;;;5.27;72.23;95668.97;5009224;28;20239;-71
2021/08/17 04:08:28;;;;;;;21.13;11.63;;;;;;;4.91;73.36;95677.50;5009351;28;20086;-71
2021/08/17 04:10:54;;;;;;;22.08;10.57;;;;;;;4.94;73.31;95697.50;5009252;28;20188;-70
2021/08/17 04:13:19;;;;;;;18.40;10.18;;;;;;;4.75;74.07;95680.72;5008643;28;20106;-70
2021/08/17 04:15:44;;;;;;;21.90;9.95;;;;;;;5.39;71.91;95682.00;5007866;28;20096;-70
2021/08/17 04:18:10;;;;;;;13.30;7.65;;;;;;;5.20;72.88;95689.00;5008844;28;20106;-70
2021/08/17 04:20:36;;;;;;;24.40;10.75;;;;;;;5.12;73.50;95683.59;5006656;28;21058;-71
2021/08/17 04:23:01;;;;;;;26.92;11.07;;;;;;;5.45;71.47;95692.81;5008889;28;20075;-71
2021/08/17 04:25:27;;;;;;;20.83;9.50;;;;;;;5.12;72.67;95689.72;5008669;28;20102;-70
2021/08/17 04:27:52;;;;;;;21.20;10.07;;;;;;;5.79;69.47;95677.41;5008756;28;20074;-70
2021/08/17 04:30:18;;;;;;;21.70;10.65;;;;;;;5.91;68.99;95681.53;5008772;28;20568;-70
2021/08/17 04:32:43;;;;;;;27.50;13.90;;;;;;;5.88;69.68;95668.59;5008255;28;20109;-70
2021/08/17 04:35:09;;;;;;;18.65;9.77;;;;;;;5.80;70.65;95673.78;5009456;28;20094;-70
2021/08/17 04:37:34;;;;;;;26.85;12.40;;;;;;;5.07;72.12;95703.34;5008399;28;20106;-71
2021/08/17 04:40:01;;;;;;;25.23;10.88;;;;;;;4.63;73.91;95689.72;5009518;28;20150;-71
2021/08/17 04:42:26;;;;;;;24.35;11.68;;;;;;;4.75;75.25;95683.34;5007103;28;20106;-69
2021/08/17 04:44:51;;;;;;;17.42;8.73;;;;;;;5.01;72.32;95692.47;5007031;28;20092;-70
2021/08/17 04:47:17;;;;;;;25.75;10.68;;;;;;;5.18;71.11;95688.31;5008691;28;20030;-70
2021/08/17 04:49:42;;;;;;;17.88;9.07;;;;;;;5.13;72.35;95677.38;5008069;28;20525;-70
2021/08/17 04:52:08;;;;;;;25.98;10.98;;;;;;;5.37;71.10;95676.88;5004136;28;20034;-69
2021/08/17 04:54:33;;;;;;;22.48;11.80;;;;;;;5.01;72.26;95684.56;4998943;28;20058;-69
2021/08/17 04:56:58;;;;;;;25.38;11.90;;;;;;;4.94;72.20;95674.56;5007763;28;20034;-70
2021/08/17 04:59:24;;;;;;;25.38;12.02;;;;;;;5.84;69.26;95688.38;5008749;28;20040;-69
2021/08/17 05:01:49;;;;;;;19.67;10.52;;;;;;;5.85;69.35;95688.22;5008634;28;20041;-69
2021/08/17 05:04:15;;;;;;;19.42;10.23;;;;;;;5.85;69.58;95701.44;5008211;28;20375;-70
2021/08/17 05:06:41;;;;;;;23.02;10.68;;;;;;;6.01;69.63;95696.50;5008775;28;20029;-70
2021/08/17 05:09:06;;;;;;;23.50;10.65;;;;;;;5.62;70.09;95703.63;4989964;28;20113;-70
2021/08/17 05:11:32;;;;;;;19.67;9.85;;;;;;;5.99;68.87;95701.94;5009368;28;20050;-70
2021/08/17 05:13:57;;;;;;;24.75;13.13;;;;;;;6.05;67.90;95697.88;5007806;28;20038;-70
2021/08/17 05:16:22;;;;;;;23.52;12.00;;;;;;;5.97;69.22;95707.38;5008127;28;20033;-70
2021/08/17 05:18:48;;;;;;;23.85;11.25;;;;;;;5.72;70.18;95716.81;5007933;28;20092;-70
2021/08/17 05:21:14;;;;;;;14.93;9.00;;;;;;;5.45;71.23;95721.88;5008216;28;20598;-69
2021/08/17 05:23:39;;;;;;;27.95;12.55;;;;;;;5.31;71.10;95746.91;5007980;28;20467;-70
2021/08/17 05:26:05;;;;;;;21.67;10.32;;;;;;;5.97;68.92;95747.03;5007932;28;20049;-70
2021/08/17 05:28:30;;;;;;;13.25;7.30;;;;;;;5.88;69.24;95729.38;5007432;28;20050;-70
2021/08/17 05:30:55;;;;;;;17.52;9.38;;;;;;;5.98;68.82;95746.03;5008066;28;20037;-70
2021/08/17 05:33:21;;;;;;;22.67;11.55;;;;;;;6.21;68.31;95747.44;5007910;28;20034;-70
2021/08/17 05:35:46;;;;;;;22.40;11.80;;;;;;;5.98;68.87;95747.84;5007685;28;20349;-70
2021/08/17 05:38:12;;;;;;;24.33;11.48;;;;;;;6.62;66.57;95741.81;5007424;28;20041;-70
2021/08/17 05:40:37;;;;;;;22.73;11.35;;;;;;;7.05;65.01;95749.16;5007193;28;20038;-70
2021/08/17 05:43:04;;;;;;;21.38;10.82;;;;;;;7.06;64.14;95754.31;5004027;28;20046;-70
2021/08/17 05:45:30;;;;;;;24.40;11.85;;;;;;;6.22;66.72;95759.69;5008217;28;20432;-70
2021/08/17 05:47:55;;;;;;;21.00;10.07;;;;;;;6.15;67.28;95758.63;5007945;28;20479;-70
2021/08/17 05:50:21;;;;;;;29.27;11.32;;;;;;;6.42;66.97;95755.13;5007476;28;20434;-70
2021/08/17 05:52:47;;;;;;;22.27;10.55;;;;;;;6.89;65.69;95753.31;5000762;28;20554;-70
2021/08/17 05:55:12;;;;;;;23.02;10.77;;;;;;;7.52;63.21;95745.38;5005963;28;20041;-70
2021/08/17 05:57:38;;;;;;;23.48;11.43;;;;;;;7.84;62.21;95749.25;5005898;28;20104;-71
2021/08/17 06:00:04;;;;;;;23.90;10.95;;;;;;;7.77;62.44;95751.69;5007776;28;20116;-71
2021/08/17 06:02:30;;;;;;;26.88;12.35;;;;;;;7.47;63.38;95759.09;5007252;28;20041;-71
2021/08/17 06:04:55;;;;;;;18.77;10.00;;;;;;;7.35;64.01;95766.44;5006062;28;20033;-71
2021/08/17 06:07:20;;;;;;;18.00;9.50;;;;;;;7.24;63.99;95764.88;5008409;28;20041;-71
2021/08/17 06:09:46;;;;;;;18.65;11.38;;;;;;;6.60;66.21;95773.69;5011533;28;20050;-71
2021/08/17 06:12:11;;;;;;;18.52;9.35;;;;;;;6.88;66.15;95788.72;5012080;28;20100;-71
2021/08/17 06:14:37;;;;;;;19.23;10.60;;;;;;;6.67;66.06;95771.31;5011388;28;20041;-71
2021/08/17 06:17:05;;;;;;;19.33;10.60;;;;;;;7.24;64.72;95780.75;5010924;28;20053;-71
2021/08/17 06:19:31;;;;;;;19.70;9.60;;;;;;;7.36;63.87;95777.88;5011526;28;20030;-71
2021/08/17 06:21:56;;;;;;;24.17;11.93;;;;;;;7.34;64.27;95778.03;5011528;28;20076;-71
2021/08/17 06:24:21;;;;;;;20.85;11.40;;;;;;;7.20;64.44;95776.75;5011600;28;20034;-71
2021/08/17 06:26:47;;;;;;;18.52;9.70;;;;;;;7.49;63.27;95773.03;5010424;28;20112;-71
2021/08/17 06:29:12;;;;;;;15.25;8.63;;;;;;;7.37;64.06;95784.81;5010012;28;20114;-71
2021/08/17 06:31:38;;;;;;;14.23;7.53;;;;;;;6.62;66.52;95779.69;5005091;28;20555;-71
2021/08/17 06:34:03;;;;;;;21.45;10.65;;;;;;;7.05;65.08;95781.75;5006841;28;20709;-71
2021/08/17 06:36:29;;;;;;;27.02;10.95;;;;;;;7.53;63.50;95770.88;5010422;28;20371;-71
2021/08/17 06:38:54;;;;;;;16.88;9.10;;;;;;;7.35;63.81;95779.69;4992490;28;20124;-71
2021/08/17 06:41:20;;;;;;;20.70;11.13;;;;;;;7.72;62.99;95775.13;5010796;28;20506;-71
2021/08/17 06:43:46;;;;;;;18.23;9.52;;;;;;;8.04;61.60;95768.41;5011668;28;20026;-71
2021/08/17 06:46:12;;;;;;;20.98;10.10;;;;;;;7.73;63.30;95766.22;5010968;28;20034;-71
2021/08/17 06:48:37;;;;;;;23.27;10.27;;;;;;;7.86;62.18;95762.34;4993140;28;20040;-71
2021/08/17 06:51:03;;;;;;;28.40;10.50;;;;;;;7.93;63.09;95768.69;5011121;28;20038;-70
2021/08/17 06:53:28;;;;;;;22.80;11.52;;;;;;;8.44;60.84;95767.91;5003673;28;20084;-70
2021/08/17 06:55:54;;;;;;;26.73;10.70;;;;;;;8.08;62.51;95768.06;5008480;28;20086;-69
2021/08/17 06:58:19;;;;;;;23.80;11.40;;;;;;;8.14;61.92;95767.44;4994281;28;20041;-69
2021/08/17 07:00:46;;;;;;;20.38;9.20;;;;;;;7.81;63.29;95770.75;4992608;28;20041;-69
2021/08/17 07:03:11;;;;;;;22.67;11.80;;;;;;;8.20;62.59;95768.63;5002473;28;20690;-69
2021/08/17 07:05:38;;;;;;;25.58;12.18;;;;;;;8.55;61.20;95766.78;5002856;28;20038;-69
2021/08/17 07:08:04;;;;;;;20.45;10.65;;;;;;;8.61;60.62;95767.94;5002290;28;20368;-69
2021/08/17 07:10:29;;;;;;;21.20;11.45;;;;;;;8.61;61.30;95771.44;5004006;28;20050;-70
2021/08/17 07:12:55;;;;;;;21.40;9.55;;;;;;;8.02;62.67;95766.88;5001762;28;20049;-69
2021/08/17 07:15:20;;;;;;;21.35;10.00;;;;;;;8.47;61.21;95769.41;5004425;28;20104;-69
2021/08/17 07:17:46;;;;;;;21.65;9.45;;;;;;;8.97;59.98;95757.09;5003021;28;20041;-69
2021/08/17 07:20:12;;;;;;;23.13;12.02;;;;;;;8.98;59.62;95765.91;5003558;28;20486;-69
2021/08/17 07:22:37;;;;;;;21.48;11.15;;;;;;;9.44;58.90;95765.41;4998724;28;20405;-69
2021/08/17 07:25:03;;;;;;;22.02;10.40;;;;;;;9.12;58.96;95761.75;5003968;28;20526;-69
2021/08/17 07:27:29;;;;;;;22.08;10.70;;;;;;;9.35;59.17;95767.22;5005087;28;20049;-69
2021/08/17 07:29:54;;;;;;;28.10;12.05;;;;;;;9.64;58.56;95765.88;5003848;28;20049;-69
2021/08/17 07:32:19;;;;;;;22.13;10.32;;;;;;;9.41;58.78;95755.94;4998052;28;20415;-69
2021/08/17 07:34:45;;;;;;;19.45;9.68;;;;;;;9.41;58.51;95774.53;5003849;28;20523;-69
2021/08/17 07:37:10;;;;;;;19.75;9.00;;;;;;;9.42;58.90;95775.38;5002971;28;20491;-70
2021/08/17 07:39:36;;;;;;;24.50;11.35;;;;;;;9.05;59.71;95777.53;4995230;28;20037;-69
2021/08/17 07:42:01;;;;;;;28.08;13.40;;;;;;;8.22;62.82;95794.00;4997441;28;20253;-69
2021/08/17 07:44:27;;;;;;;25.23;10.85;;;;;;;8.67;61.24;95793.84;5002655;28;20458;-69
2021/08/17 07:46:53;;;;;;;19.15;8.82;;;;;;;8.53;61.08;95785.50;5001131;28;20394;-68
2021/08/17 07:49:18;;;;;;;21.38;10.05;;;;;;;8.28;62.61;95781.94;5002231;28;20041;-68
2021/08/17 07:51:44;;;;;;;21.75;8.88;;;;;;;8.29;62.66;95792.38;4995119;28;20057;-69
2021/08/17 07:54:09;;;;;;;18.50;9.68;;;;;;;8.27;63.06;95786.38;4998195;28;20470;-68
2021/08/17 07:56:34;;;;;;;29.10;12.93;;;;;;;7.48;65.24;95797.00;4992009;28;20040;-68
2021/08/17 07:59:00;;;;;;;31.98;12.23;;;;;;;8.21;63.69;95791.50;4998613;28;20033;-68
2021/08/17 08:01:26;;;;;;;19.75;10.77;;;;;;;8.09;63.81;95789.13;5001918;28;20053;-68
2021/08/17 08:03:51;;;;;;;22.33;10.05;;;;;;;8.32;63.11;95790.41;5001362;28;20034;-68
2021/08/17 08:06:18;;;;;;;20.75;9.82;;;;;;;8.54;62.56;95786.34;4999813;28;20046;-68
2021/08/17 08:08:43;;;;;;;24.65;11.05;;;;;;;8.50;62.88;95782.34;5001913;28;20034;-68
2021/08/17 08:11:09;;;;;;;23.00;11.27;;;;;;;9.09;60.84;95773.53;5001418;28;20482;-69
2021/08/17 08:13:34;;;;;;;27.73;11.55;;;;;;;9.13;60.22;95772.22;5000681;28;20100;-69
2021/08/17 08:15:59;;;;;;;20.05;10.52;;;;;;;8.66;62.69;95782.41;4998841;28;20494;-69
2021/08/17 08:18:25;;;;;;;21.35;10.05;;;;;;;9.02;62.06;95786.66;5002156;28;20040;-70
2021/08/17 08:20:50;;;;;;;19.95;10.20;;;;;;;9.67;59.11;95776.19;5001660;28;20038;-70
2021/08/17 08:23:16;;;;;;;19.95;11.07;;;;;;;9.71;58.81;95779.31;5001622;28;20041;-69
2021/08/17 08:25:41;;;;;;;26.40;11.38;;;;;;;9.90;59.02;95787.94;5003492;28;20064;-70
2021/08/17 08:28:07;;;;;;;24.27;10.02;;;;;;;9.17;61.85;95788.63;5002396;28;20636;-69
2021/08/17 08:30:33;;;;;;;22.85;10.52;;;;;;;9.38;61.01;95782.03;5001973;28;20627;-69
2021/08/17 08:32:59;;;;;;;17.40;9.50;;;;;;;9.41;60.04;95789.63;4994174;28;20052;-69
2021/08/17 08:35:25;;;;;;;20.33;10.55;;;;;;;9.56;59.99;95787.16;5001528;28;20045;-69
2021/08/17 08:37:50;;;;;;;18.15;9.45;;;;;;;9.87;59.32;95790.94;5002201;28;20156;-69
2021/08/17 08:40:16;;;;;;;24.80;11.07;;;;;;;9.84;60.64;95792.94;5001845;28;20030;-69
2021/08/17 08:42:42;;;;;;;23.40;10.68;;;;;;;9.85;58.88;95796.41;4991316;28;20030;-69
2021/08/17 08:45:07;;;;;;;19.60;9.40;;;;;;;10.04;58.18;95792.56;4982322;28;20064;-70
2021/08/17 08:47:36;;;;;;;21.85;11.50;;;;;;;10.08;58.41;95793.91;4996379;28;20511;-70
2021/08/17 08:50:02;;;;;;;18.30;10.13;;;;;;;10.16;57.28;95806.34;4998535;28;20069;-71
2021/08/17 08:52:28;;;;;;;24.23;10.32;;;;;;;9.47;58.30;95812.91;4997446;28;20495;-69
2021/08/17 08:54:54;;;;;;;21.95;9.23;;;;;;;8.97;60.43;95801.41;5000465;28;20056;-69
2021/08/17 08:57:20;;;;;;;21.02;11.85;;;;;;;8.78;60.22;95798.84;5002096;28;20491;-69
2021/08/17 08:59:45;;;;;;;25.65;12.07;;;;;;;8.74;61.32;95786.88;5002154;28;20353;-70
2021/08/17 09:02:12;;;;;;;21.80;11.75;;;;;;;10.03;57.94;95782.09;4998616;28;20073;-70
2021/08/17 09:04:38;;;;;;;21.85;12.73;;;;;;;8.59;60.55;95789.34;4995289;28;20045;-70
2021/08/17 09:07:04;;;;;;;24.83;11.95;;;;;;;9.69;57.92;95776.84;5002156;28;20033;-69
2021/08/17 09:09:29;;;;;;;21.38;11.27;;;;;;;9.78;56.99;95782.13;5001688;28;20336;-70
2021/08/17 09:11:56;;;;;;;21.45;11.00;;;;;;;10.42;55.09;95767.19;5001710;28;20471;-71
2021/08/17 09:14:31;;;;;;;22.25;11.25;;;;;;;10.55;54.63;95777.28;5001734;28;20423;-70
2021/08/17 09:17:00;;;;;;;17.67;10.93;;;;;;;10.19;56.25;95766.13;4989264;28;20038;-71
2021/08/17 09:19:27;;;;;;;18.27;11.48;;;;;;;10.60;55.16;95762.44;4997775;28;20032;-69
2021/08/17 09:21:52;;;;;;;17.30;8.85;;;;;;;10.86;54.36;95771.94;4995034;28;20046;-71
2021/08/17 09:24:29;;;;;;;16.83;9.55;;;;;;;10.57;55.86;95762.78;4994116;28;20524;-69
2021/08/17 09:26:58;;;;;;;20.42;11.30;;;;;;;10.27;55.87;95757.25;4998172;28;20132;-70
2021/08/17 09:29:29;;;;;;;19.70;10.20;;;;;;;10.83;54.34;95774.13;4998225;28;20555;-71
2021/08/17 09:31:56;;;;;;;18.55;9.07;;;;;;;10.76;55.28;95768.69;4997835;28;20448;-71
2021/08/17 09:34:24;;;;;;;23.30;11.95;;;;;;;10.81;54.89;95774.28;5001579;28;20041;-72
2021/08/17 09:36:49;;;;;;;19.90;11.60;;;;;;;10.43;55.89;95764.34;4981719;28;20111;-70
2021/08/17 09:39:33;;;;;;;18.73;9.48;;;;;;;11.59;53.75;95764.63;4999281;28;20038;-70
2021/08/17 09:42:17;;;;;;;24.55;12.90;;;;;;;10.79;54.84;95773.66;4999970;28;20046;-70
2021/08/17 09:44:44;;;;;;;20.08;10.95;;;;;;;11.85;52.70;95763.34;4998056;28;20050;-70
2021/08/17 09:47:10;;;;;;;17.50;10.50;;;;;;;12.52;50.74;95763.47;4980489;28;20550;-69
2021/08/17 09:49:35;;;;;;;15.65;9.38;;;;;;;12.64;50.27;95763.78;4999384;28;20181;-70
2021/08/17 09:52:15;;;;;;;18.98;10.65;;;;;;;11.68;52.13;95760.00;4991776;28;20046;-68
2021/08/17 09:54:42;;;;;;;18.02;10.20;;;;;;;12.66;48.71;95762.59;4996505;28;20129;-69
2021/08/17 09:57:07;;;;;;;18.77;10.03;;;;;;;12.69;49.13;95761.41;5000995;28;20106;-69
2021/08/17 09:59:34;;;;;;;18.30;9.52;;;;;;;11.90;50.82;95750.31;5001104;28;20478;-68
2021/08/17 10:02:00;;;;;;;18.30;9.43;;;;;;;12.66;49.51;95746.59;4999902;28;20060;-69
2021/08/17 10:04:26;;;;;;;16.15;8.88;;;;;;;11.72;51.37;95759.47;5000150;28;20476;-68
2021/08/17 10:06:52;;;;;;;18.92;9.40;;;;;;;11.09;53.64;95776.47;5002070;28;20018;-69
2021/08/17 10:09:18;;;;;;;20.90;11.27;;;;;;;9.59;57.75;95768.22;4999516;28;20107;-69
2021/08/17 10:11:44;;;;;;;14.63;9.43;;;;;;;11.45;53.50;95763.53;5001285;28;20042;-69
2021/08/17 10:14:13;;;;;;;20.17;11.38;;;;;;;10.73;54.91;95769.03;4996469;28;20049;-69
2021/08/17 10:16:39;;;;;;;18.67;11.02;;;;;;;10.78;54.66;95758.66;4995884;28;20044;-68
2021/08/17 10:19:04;;;;;;;19.33;10.23;;;;;;;11.28;53.56;95758.34;4981799;28;20339;-68
2021/08/17 10:21:30;;;;;;;22.00;11.18;;;;;;;11.44;53.28;95757.41;4999018;28;20117;-70
2021/08/17 10:23:56;;;;;;;22.77;11.27;;;;;;;10.13;56.23;95768.63;4979918;28;20034;-69
2021/08/17 10:26:31;;;;;;;19.02;10.13;;;;;;;11.33;53.73;95765.81;5000858;28;20406;-69
2021/08/17 10:28:57;;;;;;;20.98;10.55;;;;;;;11.87;51.72;95769.34;5001125;28;20041;-70
2021/08/17 10:31:23;;;;;;;22.75;11.27;;;;;;;10.62;54.37;95773.72;5001592;28;20239;-69
2021/08/17 10:33:51;;;;;;;22.40;11.20;;;;;;;10.95;54.52;95769.25;5000752;28;20444;-69
2021/08/17 10:36:32;;;;;;;22.27;11.10;;;;;;;11.17;53.82;95777.44;5001825;28;20104;-69
2021/08/17 10:39:00;;;;;;;20.10;10.27;;;;;;;11.23;53.33;95772.25;4995698;28;20102;-69
2021/08/17 10:41:27;;;;;;;18.38;10.52;;;;;;;10.97;53.99;95764.53;5002049;28;20034;-69
2021/08/17 10:43:53;;;;;;;17.33;9.37;;;;;;;11.23;52.90;95752.75;4994029;28;20037;-69
2021/08/17 10:46:20;;;;;;;20.63;10.25;;;;;;;10.91;54.24;95754.63;5000705;28;20041;-71
2021/08/17 10:51:17;;;;;;;19.23;10.17;;;;;;;10.34;55.26;95770.72;5001469;28;20030;-69
2021/08/17 10:53:43;;;;;;;21.48;12.15;;;;;;;10.81;54.37;95776.97;4991386;28;20299;-71
2021/08/17 10:56:41;;;;;;;21.45;11.55;;;;;;;10.64;55.51;95775.41;4999908;28;20066;-70
2021/08/17 10:59:07;;;;;;;17.85;9.77;;;;;;;10.21;56.02;95776.59;4998831;28;20054;-69
2021/08/17 11:01:32;;;;;;;20.50;10.15;;;;;;;10.09;57.02;95773.44;5001688;28;20091;-69
2021/08/17 11:03:59;;;;;;;18.15;10.07;;;;;;;10.05;57.08;95783.63;5002365;28;20501;-69
2021/08/17 11:06:34;;;;;;;20.40;11.15;;;;;;;9.99;57.55;95789.56;5003462;28;20137;-69
2021/08/17 11:09:01;;;;;;;19.08;9.52;;;;;;;10.06;57.42;95784.44;5003071;28;20467;-69
2021/08/17 11:11:26;;;;;;;21.13;9.80;;;;;;;10.20;56.70;95774.94;4998829;28;20022;-69
2021/08/17 11:14:03;;;;;;;22.48;11.18;;;;;;;10.09;56.61;95763.66;5003346;28;20065;-71
2021/08/17 11:16:29;;;;;;;17.60;10.10;;;;;;;10.64;55.88;95759.44;5002183;28;20025;-70
2021/08/17 11:18:56;;;;;;;23.13;12.02;;;;;;;10.19;56.35;95767.94;5002639;28;20029;-71
2021/08/17 11:21:38;;;;;;;16.52;8.23;;;;;;;10.80;54.88;95762.00;5003738;28;20104;-70
2021/08/17 11:24:25;;;;;;;21.15;11.60;;;;;;;9.88;57.18;95768.66;5000575;28;20045;-70